sensor_id;sensor_type;location;lat;lon;timestamp;P1;durP1;ratioP1;P2;durP2;ratioP2
14030;SDS011;7090;49.436;8.490;2024-02-15T00:01:48;5.80;;;5.40;;
14030;SDS011;7090;49.436;8.490;2024-02-15T00:04:13;5.33;;;4.93;;
14030;SDS011;7090;49.436;8.490;2024-02-15T00:06:39;4.90;;;4.60;;
14030;SDS011;7090;49.436;8.490;2024-02-15T00:09:05;4.73;;;4.53;;
14030;SDS011;7090;49.436;8.490;2024-02-15T00:11:30;6.83;;;6.33;;
14030;SDS011;7090;49.436;8.490;2024-02-15T00:13:57;5.50;;;5.20;;
14030;SDS011;7090;49.436;8.490;2024-02-15T00:16:23;5.90;;;5.67;;
14030;SDS011;7090;49.436;8.490;2024-02-15T00:18:48;5.77;;;5.57;;
14030;SDS011;7090;49.436;8.490;2024-02-15T00:21:14;5.60;;;5.40;;
14030;SDS011;7090;49.436;8.490;2024-02-15T00:23:41;5.60;;;5.40;;
14030;SDS011;7090;49.436;8.490;2024-02-15T00:26:07;6.57;;;6.27;;
14030;SDS011;7090;49.436;8.490;2024-02-15T00:28:34;5.60;;;5.40;;
14030;SDS011;7090;49.436;8.490;2024-02-15T00:31:00;5.40;;;5.20;;
14030;SDS011;7090;49.436;8.490;2024-02-15T00:33:25;6.83;;;6.43;;
14030;SDS011;7090;49.436;8.490;2024-02-15T00:35:51;15.80;;;5.60;;
14030;SDS011;7090;49.436;8.490;2024-02-15T00:38:17;5.67;;;5.47;;
14030;SDS011;7090;49.436;8.490;2024-02-15T00:40:42;6.23;;;5.83;;
14030;SDS011;7090;49.436;8.490;2024-02-15T00:43:08;5.10;;;4.90;;
14030;SDS011;7090;49.436;8.490;2024-02-15T00:45:33;6.03;;;5.73;;
14030;SDS011;7090;49.436;8.490;2024-02-15T00:47:59;5.13;;;4.93;;
14030;SDS011;7090;49.436;8.490;2024-02-15T00:50:24;5.90;;;5.60;;
14030;SDS011;7090;49.436;8.490;2024-02-15T00:52:50;5.87;;;4.87;;
14030;SDS011;7090;49.436;8.490;2024-02-15T00:55:16;4.00;;;3.90;;
14030;SDS011;7090;49.436;8.490;2024-02-15T00:57:41;4.90;;;4.60;;
14030;SDS011;7090;49.436;8.490;2024-02-15T01:00:07;5.67;;;5.10;;
14030;SDS011;7090;49.436;8.490;2024-02-15T01:02:34;5.43;;;5.00;;
14030;SDS011;7090;49.436;8.490;2024-02-15T01:05:00;3.93;;;3.73;;
14030;SDS011;7090;49.436;8.490;2024-02-15T01:07:26;4.10;;;3.90;;
14030;SDS011;7090;49.436;8.490;2024-02-15T01:09:52;3.40;;;3.30;;
14030;SDS011;7090;49.436;8.490;2024-02-15T01:12:18;4.77;;;4.47;;
14030;SDS011;7090;49.436;8.490;2024-02-15T01:14:44;3.40;;;3.30;;
14030;SDS011;7090;49.436;8.490;2024-02-15T01:17:10;3.87;;;3.73;;
14030;SDS011;7090;49.436;8.490;2024-02-15T01:19:36;3.47;;;3.37;;
14030;SDS011;7090;49.436;8.490;2024-02-15T01:22:01;11.53;;;4.23;;
14030;SDS011;7090;49.436;8.490;2024-02-15T01:24:27;4.20;;;4.00;;
14030;SDS011;7090;49.436;8.490;2024-02-15T01:26:53;3.80;;;3.70;;
14030;SDS011;7090;49.436;8.490;2024-02-15T01:29:19;4.60;;;4.40;;
14030;SDS011;7090;49.436;8.490;2024-02-15T01:31:45;4.33;;;4.23;;
14030;SDS011;7090;49.436;8.490;2024-02-15T01:34:11;4.83;;;4.63;;
14030;SDS011;7090;49.436;8.490;2024-02-15T01:36:36;4.80;;;4.70;;
14030;SDS011;7090;49.436;8.490;2024-02-15T01:39:02;4.57;;;4.47;;
14030;SDS011;7090;49.436;8.490;2024-02-15T01:41:27;4.80;;;4.70;;
14030;SDS011;7090;49.436;8.490;2024-02-15T01:43:53;4.50;;;4.40;;
14030;SDS011;7090;49.436;8.490;2024-02-15T01:46:19;4.80;;;4.70;;
14030;SDS011;7090;49.436;8.490;2024-02-15T01:48:45;4.60;;;4.50;;
14030;SDS011;7090;49.436;8.490;2024-02-15T01:51:11;5.00;;;4.80;;
14030;SDS011;7090;49.436;8.490;2024-02-15T01:53:40;4.77;;;4.67;;
14030;SDS011;7090;49.436;8.490;2024-02-15T01:56:07;4.80;;;4.70;;
14030;SDS011;7090;49.436;8.490;2024-02-15T01:58:33;6.03;;;5.73;;
14030;SDS011;7090;49.436;8.490;2024-02-15T02:01:00;4.93;;;4.73;;
14030;SDS011;7090;49.436;8.490;2024-02-15T02:03:26;4.63;;;4.50;;
14030;SDS011;7090;49.436;8.490;2024-02-15T02:05:52;3.90;;;3.80;;
14030;SDS011;7090;49.436;8.490;2024-02-15T02:08:18;3.70;;;3.60;;
14030;SDS011;7090;49.436;8.490;2024-02-15T02:10:43;4.10;;;4.00;;
14030;SDS011;7090;49.436;8.490;2024-02-15T02:13:10;4.20;;;4.10;;
14030;SDS011;7090;49.436;8.490;2024-02-15T02:15:36;3.90;;;3.80;;
14030;SDS011;7090;49.436;8.490;2024-02-15T02:18:02;4.77;;;4.57;;
14030;SDS011;7090;49.436;8.490;2024-02-15T02:20:34;3.80;;;3.70;;
14030;SDS011;7090;49.436;8.490;2024-02-15T02:23:15;4.70;;;4.47;;
14030;SDS011;7090;49.436;8.490;2024-02-15T02:25:45;4.00;;;3.90;;
14030;SDS011;7090;49.436;8.490;2024-02-15T02:28:14;4.73;;;4.43;;
14030;SDS011;7090;49.436;8.490;2024-02-15T02:30:40;4.17;;;3.97;;
14030;SDS011;7090;49.436;8.490;2024-02-15T02:33:10;4.43;;;4.07;;
14030;SDS011;7090;49.436;8.490;2024-02-15T02:35:36;3.80;;;3.70;;
14030;SDS011;7090;49.436;8.490;2024-02-15T02:38:02;4.63;;;4.40;;
14030;SDS011;7090;49.436;8.490;2024-02-15T02:40:28;6.70;;;6.10;;
14030;SDS011;7090;49.436;8.490;2024-02-15T02:42:54;5.40;;;4.90;;
14030;SDS011;7090;49.436;8.490;2024-02-15T02:45:29;5.53;;;5.13;;
14030;SDS011;7090;49.436;8.490;2024-02-15T02:47:55;5.40;;;4.90;;
14030;SDS011;7090;49.436;8.490;2024-02-15T02:50:21;3.50;;;3.20;;
14030;SDS011;7090;49.436;8.490;2024-02-15T02:52:47;4.77;;;4.47;;
14030;SDS011;7090;49.436;8.490;2024-02-15T02:55:14;2.97;;;2.87;;
14030;SDS011;7090;49.436;8.490;2024-02-15T02:57:40;2.97;;;2.87;;
14030;SDS011;7090;49.436;8.490;2024-02-15T03:00:07;3.60;;;3.40;;
14030;SDS011;7090;49.436;8.490;2024-02-15T03:02:45;7.27;;;3.73;;
14030;SDS011;7090;49.436;8.490;2024-02-15T03:05:11;4.87;;;4.57;;
14030;SDS011;7090;49.436;8.490;2024-02-15T03:07:38;5.10;;;4.80;;
14030;SDS011;7090;49.436;8.490;2024-02-15T03:10:07;5.27;;;4.90;;
14030;SDS011;7090;49.436;8.490;2024-02-15T03:12:35;5.40;;;5.03;;
14030;SDS011;7090;49.436;8.490;2024-02-15T03:15:02;4.03;;;3.83;;
14030;SDS011;7090;49.436;8.490;2024-02-15T03:17:28;3.50;;;3.40;;
14030;SDS011;7090;49.436;8.490;2024-02-15T03:19:56;3.40;;;3.30;;
14030;SDS011;7090;49.436;8.490;2024-02-15T03:22:25;3.80;;;3.70;;
14030;SDS011;7090;49.436;8.490;2024-02-15T03:24:54;4.63;;;4.33;;
14030;SDS011;7090;49.436;8.490;2024-02-15T03:27:19;3.67;;;3.57;;
14030;SDS011;7090;49.436;8.490;2024-02-15T03:29:48;4.53;;;4.27;;
14030;SDS011;7090;49.436;8.490;2024-02-15T03:32:13;3.23;;;3.13;;
14030;SDS011;7090;49.436;8.490;2024-02-15T03:34:39;3.50;;;3.40;;
14030;SDS011;7090;49.436;8.490;2024-02-15T03:37:05;3.73;;;3.63;;
14030;SDS011;7090;49.436;8.490;2024-02-15T03:39:30;3.40;;;3.30;;
14030;SDS011;7090;49.436;8.490;2024-02-15T03:41:57;3.80;;;3.63;;
14030;SDS011;7090;49.436;8.490;2024-02-15T03:44:23;3.70;;;3.60;;
14030;SDS011;7090;49.436;8.490;2024-02-15T03:46:51;5.77;;;5.37;;
14030;SDS011;7090;49.436;8.490;2024-02-15T03:49:18;5.83;;;5.23;;
14030;SDS011;7090;49.436;8.490;2024-02-15T03:51:43;5.67;;;5.17;;
14030;SDS011;7090;49.436;8.490;2024-02-15T03:54:10;3.57;;;3.40;;
14030;SDS011;7090;49.436;8.490;2024-02-15T03:56:36;4.90;;;4.13;;
14030;SDS011;7090;49.436;8.490;2024-02-15T03:59:10;6.63;;;5.20;;
14030;SDS011;7090;49.436;8.490;2024-02-15T04:01:38;5.20;;;4.80;;
14030;SDS011;7090;49.436;8.490;2024-02-15T04:04:04;5.73;;;5.23;;
14030;SDS011;7090;49.436;8.490;2024-02-15T04:06:30;6.00;;;4.07;;
14030;SDS011;7090;49.436;8.490;2024-02-15T04:08:56;3.60;;;3.40;;
14030;SDS011;7090;49.436;8.490;2024-02-15T04:11:22;3.70;;;3.40;;
14030;SDS011;7090;49.436;8.490;2024-02-15T04:13:47;2.80;;;2.70;;
14030;SDS011;7090;49.436;8.490;2024-02-15T04:16:13;4.07;;;3.87;;
14030;SDS011;7090;49.436;8.490;2024-02-15T04:18:39;5.30;;;5.00;;
14030;SDS011;7090;49.436;8.490;2024-02-15T04:21:04;2.90;;;2.80;;
14030;SDS011;7090;49.436;8.490;2024-02-15T04:23:32;3.20;;;3.10;;
14030;SDS011;7090;49.436;8.490;2024-02-15T04:25:57;3.40;;;3.30;;
14030;SDS011;7090;49.436;8.490;2024-02-15T04:28:24;4.23;;;4.03;;
14030;SDS011;7090;49.436;8.490;2024-02-15T04:30:50;5.47;;;4.27;;
14030;SDS011;7090;49.436;8.490;2024-02-15T04:33:16;4.60;;;4.37;;
14030;SDS011;7090;49.436;8.490;2024-02-15T04:35:42;3.83;;;3.73;;
14030;SDS011;7090;49.436;8.490;2024-02-15T04:38:09;3.83;;;3.73;;
14030;SDS011;7090;49.436;8.490;2024-02-15T04:40:34;6.30;;;5.27;;
14030;SDS011;7090;49.436;8.490;2024-02-15T04:43:02;5.13;;;4.83;;
14030;SDS011;7090;49.436;8.490;2024-02-15T04:45:29;8.30;;;6.10;;
14030;SDS011;7090;49.436;8.490;2024-02-15T04:47:55;8.63;;;7.23;;
14030;SDS011;7090;49.436;8.490;2024-02-15T04:50:22;6.20;;;5.80;;
14030;SDS011;7090;49.436;8.490;2024-02-15T04:52:47;5.87;;;5.57;;
14030;SDS011;7090;49.436;8.490;2024-02-15T04:55:14;4.60;;;4.50;;
14030;SDS011;7090;49.436;8.490;2024-02-15T04:57:41;6.97;;;6.53;;
14030;SDS011;7090;49.436;8.490;2024-02-15T05:00:07;5.87;;;5.57;;
14030;SDS011;7090;49.436;8.490;2024-02-15T05:02:36;9.40;;;4.97;;
14030;SDS011;7090;49.436;8.490;2024-02-15T05:05:06;7.60;;;5.57;;
14030;SDS011;7090;49.436;8.490;2024-02-15T05:07:32;6.07;;;5.60;;
14030;SDS011;7090;49.436;8.490;2024-02-15T05:09:59;5.07;;;4.77;;
14030;SDS011;7090;49.436;8.490;2024-02-15T05:12:28;4.33;;;4.23;;
14030;SDS011;7090;49.436;8.490;2024-02-15T05:14:55;6.57;;;6.10;;
14030;SDS011;7090;49.436;8.490;2024-02-15T05:17:21;4.30;;;4.20;;
14030;SDS011;7090;49.436;8.490;2024-02-15T05:19:46;4.57;;;4.27;;
14030;SDS011;7090;49.436;8.490;2024-02-15T05:22:12;5.87;;;5.57;;
14030;SDS011;7090;49.436;8.490;2024-02-15T05:24:40;7.87;;;5.57;;
14030;SDS011;7090;49.436;8.490;2024-02-15T05:27:05;4.67;;;4.43;;
14030;SDS011;7090;49.436;8.490;2024-02-15T05:29:31;5.87;;;5.47;;
14030;SDS011;7090;49.436;8.490;2024-02-15T05:32:01;6.93;;;5.40;;
14030;SDS011;7090;49.436;8.490;2024-02-15T05:34:26;7.57;;;6.00;;
14030;SDS011;7090;49.436;8.490;2024-02-15T05:36:54;5.80;;;5.40;;
14030;SDS011;7090;49.436;8.490;2024-02-15T05:39:20;5.07;;;4.87;;
14030;SDS011;7090;49.436;8.490;2024-02-15T05:41:47;4.00;;;3.90;;
14030;SDS011;7090;49.436;8.490;2024-02-15T05:44:13;4.60;;;4.30;;
14030;SDS011;7090;49.436;8.490;2024-02-15T05:46:44;4.33;;;4.23;;
14030;SDS011;7090;49.436;8.490;2024-02-15T05:49:09;5.13;;;4.93;;
14030;SDS011;7090;49.436;8.490;2024-02-15T05:51:40;4.80;;;4.60;;
14030;SDS011;7090;49.436;8.490;2024-02-15T05:54:06;4.73;;;4.60;;
14030;SDS011;7090;49.436;8.490;2024-02-15T05:56:32;5.30;;;5.10;;
14030;SDS011;7090;49.436;8.490;2024-02-15T05:58:57;4.83;;;4.63;;
14030;SDS011;7090;49.436;8.490;2024-02-15T06:01:23;6.33;;;5.83;;
14030;SDS011;7090;49.436;8.490;2024-02-15T06:03:49;5.90;;;5.60;;
14030;SDS011;7090;49.436;8.490;2024-02-15T06:06:15;5.00;;;4.80;;
14030;SDS011;7090;49.436;8.490;2024-02-15T06:08:41;5.00;;;4.80;;
14030;SDS011;7090;49.436;8.490;2024-02-15T06:11:06;9.90;;;6.43;;
14030;SDS011;7090;49.436;8.490;2024-02-15T06:13:34;7.00;;;6.37;;
14030;SDS011;7090;49.436;8.490;2024-02-15T06:16:00;6.83;;;6.33;;
14030;SDS011;7090;49.436;8.490;2024-02-15T06:18:28;7.57;;;7.00;;
14030;SDS011;7090;49.436;8.490;2024-02-15T06:20:54;5.73;;;5.37;;
14030;SDS011;7090;49.436;8.490;2024-02-15T06:23:25;5.13;;;4.80;;
14030;SDS011;7090;49.436;8.490;2024-02-15T06:25:52;6.00;;;5.50;;
14030;SDS011;7090;49.436;8.490;2024-02-15T06:28:19;9.13;;;5.10;;
14030;SDS011;7090;49.436;8.490;2024-02-15T06:31:04;5.13;;;4.93;;
14030;SDS011;7090;49.436;8.490;2024-02-15T06:33:49;7.67;;;6.97;;
14030;SDS011;7090;49.436;8.490;2024-02-15T06:36:33;8.10;;;7.40;;
14030;SDS011;7090;49.436;8.490;2024-02-15T06:39:17;6.63;;;6.33;;
14030;SDS011;7090;49.436;8.490;2024-02-15T06:42:01;7.53;;;6.90;;
14030;SDS011;7090;49.436;8.490;2024-02-15T06:44:27;5.10;;;4.90;;
14030;SDS011;7090;49.436;8.490;2024-02-15T06:46:53;5.20;;;5.00;;
14030;SDS011;7090;49.436;8.490;2024-02-15T06:49:18;6.93;;;6.47;;
14030;SDS011;7090;49.436;8.490;2024-02-15T06:51:47;5.23;;;4.90;;
14030;SDS011;7090;49.436;8.490;2024-02-15T06:54:13;6.30;;;5.37;;
14030;SDS011;7090;49.436;8.490;2024-02-15T06:56:38;11.50;;;7.67;;
14030;SDS011;7090;49.436;8.490;2024-02-15T06:59:04;5.97;;;5.67;;
14030;SDS011;7090;49.436;8.490;2024-02-15T07:01:30;6.33;;;5.93;;
14030;SDS011;7090;49.436;8.490;2024-02-15T07:03:59;6.27;;;5.97;;
14030;SDS011;7090;49.436;8.490;2024-02-15T07:06:24;5.27;;;5.07;;
14030;SDS011;7090;49.436;8.490;2024-02-15T07:08:52;6.40;;;6.10;;
14030;SDS011;7090;49.436;8.490;2024-02-15T07:11:20;5.50;;;5.30;;
14030;SDS011;7090;49.436;8.490;2024-02-15T07:13:46;7.00;;;6.60;;
14030;SDS011;7090;49.436;8.490;2024-02-15T07:16:12;7.50;;;7.00;;
14030;SDS011;7090;49.436;8.490;2024-02-15T07:18:38;6.83;;;6.27;;
14030;SDS011;7090;49.436;8.490;2024-02-15T07:21:04;15.20;;;6.40;;
14030;SDS011;7090;49.436;8.490;2024-02-15T07:23:36;7.20;;;6.80;;
14030;SDS011;7090;49.436;8.490;2024-02-15T07:26:01;7.43;;;7.00;;
14030;SDS011;7090;49.436;8.490;2024-02-15T07:28:28;8.50;;;7.67;;
14030;SDS011;7090;49.436;8.490;2024-02-15T07:30:55;6.53;;;6.23;;
14030;SDS011;7090;49.436;8.490;2024-02-15T07:33:22;7.60;;;6.97;;
14030;SDS011;7090;49.436;8.490;2024-02-15T07:35:48;7.17;;;6.77;;
14030;SDS011;7090;49.436;8.490;2024-02-15T07:38:18;7.00;;;6.70;;
14030;SDS011;7090;49.436;8.490;2024-02-15T07:40:44;6.43;;;6.20;;
14030;SDS011;7090;49.436;8.490;2024-02-15T07:43:10;7.20;;;6.90;;
14030;SDS011;7090;49.436;8.490;2024-02-15T07:45:35;8.83;;;8.23;;
14030;SDS011;7090;49.436;8.490;2024-02-15T07:48:02;8.32;;;7.85;;
14030;SDS011;7090;49.436;8.490;2024-02-15T07:50:31;8.13;;;7.73;;
14030;SDS011;7090;49.436;8.490;2024-02-15T07:52:57;8.00;;;7.60;;
14030;SDS011;7090;49.436;8.490;2024-02-15T07:55:23;11.30;;;10.20;;
14030;SDS011;7090;49.436;8.490;2024-02-15T07:57:49;8.37;;;7.87;;
14030;SDS011;7090;49.436;8.490;2024-02-15T08:00:18;7.40;;;7.00;;
14030;SDS011;7090;49.436;8.490;2024-02-15T08:02:44;7.37;;;7.07;;
14030;SDS011;7090;49.436;8.490;2024-02-15T08:05:10;6.33;;;6.03;;
14030;SDS011;7090;49.436;8.490;2024-02-15T08:07:40;5.90;;;5.70;;
14030;SDS011;7090;49.436;8.490;2024-02-15T08:10:09;6.43;;;6.23;;
14030;SDS011;7090;49.436;8.490;2024-02-15T08:12:46;6.70;;;6.50;;
14030;SDS011;7090;49.436;8.490;2024-02-15T08:15:17;8.33;;;7.60;;
14030;SDS011;7090;49.436;8.490;2024-02-15T08:17:43;6.67;;;6.40;;
14030;SDS011;7090;49.436;8.490;2024-02-15T08:20:13;8.27;;;7.73;;
14030;SDS011;7090;49.436;8.490;2024-02-15T08:22:39;7.27;;;6.97;;
14030;SDS011;7090;49.436;8.490;2024-02-15T08:25:09;7.73;;;7.33;;
14030;SDS011;7090;49.436;8.490;2024-02-15T08:27:39;6.60;;;6.40;;
14030;SDS011;7090;49.436;8.490;2024-02-15T08:30:11;6.37;;;6.17;;
14030;SDS011;7090;49.436;8.490;2024-02-15T08:32:38;6.70;;;6.50;;
14030;SDS011;7090;49.436;8.490;2024-02-15T08:35:09;8.17;;;7.87;;
14030;SDS011;7090;49.436;8.490;2024-02-15T08:37:39;8.57;;;8.17;;
14030;SDS011;7090;49.436;8.490;2024-02-15T08:40:07;7.33;;;7.03;;
14030;SDS011;7090;49.436;8.490;2024-02-15T08:42:38;8.57;;;8.17;;
14030;SDS011;7090;49.436;8.490;2024-02-15T08:45:05;9.03;;;8.53;;
14030;SDS011;7090;49.436;8.490;2024-02-15T08:47:34;8.00;;;7.70;;
14030;SDS011;7090;49.436;8.490;2024-02-15T08:50:03;8.10;;;7.60;;
14030;SDS011;7090;49.436;8.490;2024-02-15T08:52:29;7.60;;;7.20;;
14030;SDS011;7090;49.436;8.490;2024-02-15T08:54:55;8.60;;;7.63;;
14030;SDS011;7090;49.436;8.490;2024-02-15T08:57:22;7.13;;;6.83;;
14030;SDS011;7090;49.436;8.490;2024-02-15T08:59:48;9.07;;;8.27;;
14030;SDS011;7090;49.436;8.490;2024-02-15T09:02:16;7.38;;;6.97;;
14030;SDS011;7090;49.436;8.490;2024-02-15T09:04:42;5.82;;;5.63;;
14030;SDS011;7090;49.436;8.490;2024-02-15T09:07:08;7.22;;;6.82;;
14030;SDS011;7090;49.436;8.490;2024-02-15T09:09:34;5.85;;;5.65;;
14030;SDS011;7090;49.436;8.490;2024-02-15T09:12:02;6.68;;;6.22;;
14030;SDS011;7090;49.436;8.490;2024-02-15T09:14:34;5.35;;;5.15;;
14030;SDS011;7090;49.436;8.490;2024-02-15T09:17:01;5.75;;;5.55;;
14030;SDS011;7090;49.436;8.490;2024-02-15T09:19:35;5.70;;;5.40;;
14030;SDS011;7090;49.436;8.490;2024-02-15T09:22:01;5.90;;;5.60;;
14030;SDS011;7090;49.436;8.490;2024-02-15T09:24:31;6.13;;;5.93;;
14030;SDS011;7090;49.436;8.490;2024-02-15T09:26:59;6.18;;;5.88;;
14030;SDS011;7090;49.436;8.490;2024-02-15T09:29:26;5.93;;;5.63;;
14030;SDS011;7090;49.436;8.490;2024-02-15T09:31:54;6.70;;;6.15;;
14030;SDS011;7090;49.436;8.490;2024-02-15T09:34:21;7.18;;;6.50;;
14030;SDS011;7090;49.436;8.490;2024-02-15T09:36:47;6.55;;;6.15;;
14030;SDS011;7090;49.436;8.490;2024-02-15T09:39:12;7.63;;;7.13;;
14030;SDS011;7090;49.436;8.490;2024-02-15T09:41:39;6.90;;;6.40;;
14030;SDS011;7090;49.436;8.490;2024-02-15T09:44:05;5.80;;;5.60;;
14030;SDS011;7090;49.436;8.490;2024-02-15T09:46:35;6.38;;;6.07;;
14030;SDS011;7090;49.436;8.490;2024-02-15T09:49:07;6.65;;;6.25;;
14030;SDS011;7090;49.436;8.490;2024-02-15T09:51:33;6.72;;;6.30;;
14030;SDS011;7090;49.436;8.490;2024-02-15T09:53:59;5.93;;;5.72;;
14030;SDS011;7090;49.436;8.490;2024-02-15T09:56:26;7.40;;;6.50;;
14030;SDS011;7090;49.436;8.490;2024-02-15T09:58:53;5.40;;;5.20;;
14030;SDS011;7090;49.436;8.490;2024-02-15T10:01:20;6.32;;;6.03;;
14030;SDS011;7090;49.436;8.490;2024-02-15T10:03:49;6.93;;;6.53;;
14030;SDS011;7090;49.436;8.490;2024-02-15T10:06:17;6.32;;;6.10;;
14030;SDS011;7090;49.436;8.490;2024-02-15T10:08:44;6.10;;;5.90;;
14030;SDS011;7090;49.436;8.490;2024-02-15T10:11:12;5.88;;;5.68;;
14030;SDS011;7090;49.436;8.490;2024-02-15T10:13:37;5.90;;;5.70;;
14030;SDS011;7090;49.436;8.490;2024-02-15T10:16:17;6.60;;;6.00;;
14030;SDS011;7090;49.436;8.490;2024-02-15T10:18:44;6.10;;;5.80;;
14030;SDS011;7090;49.436;8.490;2024-02-15T10:21:23;5.57;;;5.15;;
14030;SDS011;7090;49.436;8.490;2024-02-15T10:24:06;5.50;;;4.97;;
14030;SDS011;7090;49.436;8.490;2024-02-15T10:26:33;5.50;;;5.20;;
14030;SDS011;7090;49.436;8.490;2024-02-15T10:29:04;4.30;;;4.20;;
14030;SDS011;7090;49.436;8.490;2024-02-15T10:31:40;5.03;;;4.72;;
14030;SDS011;7090;49.436;8.490;2024-02-15T10:34:17;4.30;;;4.20;;
14030;SDS011;7090;49.436;8.490;2024-02-15T10:36:44;5.47;;;5.00;;
14030;SDS011;7090;49.436;8.490;2024-02-15T10:39:14;4.72;;;4.53;;
14030;SDS011;7090;49.436;8.490;2024-02-15T10:41:47;5.05;;;4.80;;
14030;SDS011;7090;49.436;8.490;2024-02-15T10:44:22;4.82;;;4.40;;
14030;SDS011;7090;49.436;8.490;2024-02-15T10:46:50;4.57;;;4.38;;
14030;SDS011;7090;49.436;8.490;2024-02-15T10:49:17;5.68;;;4.65;;
14030;SDS011;7090;49.436;8.490;2024-02-15T10:51:43;4.25;;;4.15;;
14030;SDS011;7090;49.436;8.490;2024-02-15T10:54:12;5.07;;;4.65;;
14030;SDS011;7090;49.436;8.490;2024-02-15T10:56:42;4.32;;;4.20;;
14030;SDS011;7090;49.436;8.490;2024-02-15T10:59:18;4.10;;;4.00;;
14030;SDS011;7090;49.436;8.490;2024-02-15T11:01:49;4.30;;;4.20;;
14030;SDS011;7090;49.436;8.490;2024-02-15T11:04:20;4.30;;;4.20;;
14030;SDS011;7090;49.436;8.490;2024-02-15T11:06:47;4.88;;;4.68;;
14030;SDS011;7090;49.436;8.490;2024-02-15T11:09:15;4.85;;;4.65;;
14030;SDS011;7090;49.436;8.490;2024-02-15T11:11:42;5.63;;;5.22;;
14030;SDS011;7090;49.436;8.490;2024-02-15T11:14:27;4.90;;;4.70;;
14030;SDS011;7090;49.436;8.490;2024-02-15T11:16:58;4.95;;;4.75;;
14030;SDS011;7090;49.436;8.490;2024-02-15T11:22:11;4.80;;;4.50;;
14030;SDS011;7090;49.436;8.490;2024-02-15T11:24:52;4.50;;;4.40;;
14030;SDS011;7090;49.436;8.490;2024-02-15T11:27:27;4.40;;;4.30;;
14030;SDS011;7090;49.436;8.490;2024-02-15T11:29:57;5.05;;;4.78;;
14030;SDS011;7090;49.436;8.490;2024-02-15T11:32:35;4.55;;;4.35;;
14030;SDS011;7090;49.436;8.490;2024-02-15T11:37:54;4.38;;;4.28;;
14030;SDS011;7090;49.436;8.490;2024-02-15T11:40:24;4.38;;;4.28;;
14030;SDS011;7090;49.436;8.490;2024-02-15T11:42:55;5.15;;;4.57;;
14030;SDS011;7090;49.436;8.490;2024-02-15T11:45:24;4.72;;;4.53;;
14030;SDS011;7090;49.436;8.490;2024-02-15T11:47:58;5.40;;;4.90;;
14030;SDS011;7090;49.436;8.490;2024-02-15T11:50:26;8.20;;;5.20;;
14030;SDS011;7090;49.436;8.490;2024-02-15T11:53:01;5.22;;;4.97;;
14030;SDS011;7090;49.436;8.490;2024-02-15T11:55:34;4.40;;;4.30;;
14030;SDS011;7090;49.436;8.490;2024-02-15T11:58:01;4.70;;;4.50;;
14030;SDS011;7090;49.436;8.490;2024-02-15T12:00:42;5.38;;;4.60;;
14030;SDS011;7090;49.436;8.490;2024-02-15T12:03:28;4.97;;;4.78;;
14030;SDS011;7090;49.436;8.490;2024-02-15T12:06:12;4.70;;;4.45;;
14030;SDS011;7090;49.436;8.490;2024-02-15T12:09:01;4.90;;;4.70;;
14030;SDS011;7090;49.436;8.490;2024-02-15T12:11:46;5.13;;;4.70;;
14030;SDS011;7090;49.436;8.490;2024-02-15T12:14:30;4.93;;;4.72;;
14030;SDS011;7090;49.436;8.490;2024-02-15T12:17:14;4.90;;;4.70;;
14030;SDS011;7090;49.436;8.490;2024-02-15T12:20:02;4.90;;;4.70;;
14030;SDS011;7090;49.436;8.490;2024-02-15T12:22:35;5.18;;;4.88;;
14030;SDS011;7090;49.436;8.490;2024-02-15T12:25:05;5.30;;;5.00;;
14030;SDS011;7090;49.436;8.490;2024-02-15T12:27:39;5.28;;;4.90;;
14030;SDS011;7090;49.436;8.490;2024-02-15T12:30:14;4.82;;;4.63;;
14030;SDS011;7090;49.436;8.490;2024-02-15T12:32:45;5.90;;;5.47;;
14030;SDS011;7090;49.436;8.490;2024-02-15T12:35:12;5.75;;;5.35;;
14030;SDS011;7090;49.436;8.490;2024-02-15T12:37:44;5.93;;;5.63;;
14030;SDS011;7090;49.436;8.490;2024-02-15T12:40:16;5.70;;;5.50;;
14030;SDS011;7090;49.436;8.490;2024-02-15T12:42:45;5.70;;;5.50;;
14030;SDS011;7090;49.436;8.490;2024-02-15T12:45:22;5.40;;;5.20;;
14030;SDS011;7090;49.436;8.490;2024-02-15T12:47:53;6.68;;;6.07;;
14030;SDS011;7090;49.436;8.490;2024-02-15T12:50:22;5.40;;;5.20;;
14030;SDS011;7090;49.436;8.490;2024-02-15T12:52:50;5.75;;;5.45;;
14030;SDS011;7090;49.436;8.490;2024-02-15T12:55:16;5.93;;;5.53;;
14030;SDS011;7090;49.436;8.490;2024-02-15T12:57:55;5.75;;;5.55;;
14030;SDS011;7090;49.436;8.490;2024-02-15T13:00:26;5.85;;;5.55;;
14030;SDS011;7090;49.436;8.490;2024-02-15T13:02:58;6.50;;;6.00;;
14030;SDS011;7090;49.436;8.490;2024-02-15T13:05:25;5.60;;;5.40;;
14030;SDS011;7090;49.436;8.490;2024-02-15T13:07:52;5.40;;;5.20;;
14030;SDS011;7090;49.436;8.490;2024-02-15T13:10:31;6.22;;;5.72;;
14030;SDS011;7090;49.436;8.490;2024-02-15T13:12:57;5.45;;;5.22;;
14030;SDS011;7090;49.436;8.490;2024-02-15T13:15:23;5.07;;;4.88;;
14030;SDS011;7090;49.436;8.490;2024-02-15T13:17:52;5.68;;;5.38;;
14030;SDS011;7090;49.436;8.490;2024-02-15T13:20:20;5.63;;;5.40;;
14030;SDS011;7090;49.436;8.490;2024-02-15T13:22:55;6.20;;;5.78;;
14030;SDS011;7090;49.436;8.490;2024-02-15T13:25:25;6.25;;;5.85;;
14030;SDS011;7090;49.436;8.490;2024-02-15T13:27:50;6.15;;;5.80;;
14030;SDS011;7090;49.436;8.490;2024-02-15T13:30:16;5.90;;;5.60;;
14030;SDS011;7090;49.436;8.490;2024-02-15T13:32:48;8.13;;;6.20;;
14030;SDS011;7090;49.436;8.490;2024-02-15T13:35:15;6.05;;;5.75;;
14030;SDS011;7090;49.436;8.490;2024-02-15T13:37:48;6.38;;;5.93;;
14030;SDS011;7090;49.436;8.490;2024-02-15T13:40:17;6.20;;;5.90;;
14030;SDS011;7090;49.436;8.490;2024-02-15T13:42:45;6.63;;;6.20;;
14030;SDS011;7090;49.436;8.490;2024-02-15T13:45:17;6.30;;;6.00;;
14030;SDS011;7090;49.436;8.490;2024-02-15T13:47:57;5.90;;;5.70;;
14030;SDS011;7090;49.436;8.490;2024-02-15T13:50:23;6.55;;;6.25;;
14030;SDS011;7090;49.436;8.490;2024-02-15T13:52:49;6.78;;;6.38;;
14030;SDS011;7090;49.436;8.490;2024-02-15T13:55:16;6.22;;;5.88;;
14030;SDS011;7090;49.436;8.490;2024-02-15T13:57:45;6.43;;;6.13;;
14030;SDS011;7090;49.436;8.490;2024-02-15T14:00:12;6.00;;;5.80;;
14030;SDS011;7090;49.436;8.490;2024-02-15T14:02:46;6.32;;;6.00;;
14030;SDS011;7090;49.436;8.490;2024-02-15T14:05:32;6.85;;;6.40;;
14030;SDS011;7090;49.436;8.490;2024-02-15T14:08:02;6.60;;;6.30;;
14030;SDS011;7090;49.436;8.490;2024-02-15T14:10:31;6.57;;;6.28;;
14030;SDS011;7090;49.436;8.490;2024-02-15T14:13:00;5.93;;;5.72;;
14030;SDS011;7090;49.436;8.490;2024-02-15T14:15:30;6.10;;;5.90;;
14030;SDS011;7090;49.436;8.490;2024-02-15T14:18:03;6.22;;;6.03;;
14030;SDS011;7090;49.436;8.490;2024-02-15T14:20:32;6.40;;;6.20;;
14030;SDS011;7090;49.436;8.490;2024-02-15T14:22:58;6.15;;;5.90;;
14030;SDS011;7090;49.436;8.490;2024-02-15T14:25:29;5.85;;;5.65;;
14030;SDS011;7090;49.436;8.490;2024-02-15T14:27:56;6.20;;;6.00;;
14030;SDS011;7090;49.436;8.490;2024-02-15T14:30:22;5.68;;;5.47;;
14030;SDS011;7090;49.436;8.490;2024-02-15T14:33:07;6.55;;;6.10;;
14030;SDS011;7090;49.436;8.490;2024-02-15T14:35:40;6.38;;;6.10;;
14030;SDS011;7090;49.436;8.490;2024-02-15T14:38:07;6.20;;;5.90;;
14030;SDS011;7090;49.436;8.490;2024-02-15T14:40:36;5.80;;;5.60;;
14030;SDS011;7090;49.436;8.490;2024-02-15T14:43:03;7.15;;;6.75;;
14030;SDS011;7090;49.436;8.490;2024-02-15T14:45:30;6.78;;;6.20;;
14030;SDS011;7090;49.436;8.490;2024-02-15T14:47:58;6.60;;;6.30;;
14030;SDS011;7090;49.436;8.490;2024-02-15T14:50:24;6.78;;;6.45;;
14030;SDS011;7090;49.436;8.490;2024-02-15T14:52:50;6.18;;;5.88;;
14030;SDS011;7090;49.436;8.490;2024-02-15T14:55:17;7.03;;;6.63;;
14030;SDS011;7090;49.436;8.490;2024-02-15T14:57:44;6.20;;;5.90;;
14030;SDS011;7090;49.436;8.490;2024-02-15T15:00:10;7.40;;;6.90;;
14030;SDS011;7090;49.436;8.490;2024-02-15T15:02:43;6.85;;;6.45;;
14030;SDS011;7090;49.436;8.490;2024-02-15T15:05:11;5.80;;;5.50;;
14030;SDS011;7090;49.436;8.490;2024-02-15T15:07:56;6.32;;;5.93;;
14030;SDS011;7090;49.436;8.490;2024-02-15T15:10:40;6.70;;;6.30;;
14030;SDS011;7090;49.436;8.490;2024-02-15T15:13:24;6.82;;;6.50;;
14030;SDS011;7090;49.436;8.490;2024-02-15T15:15:50;6.55;;;6.15;;